Time;durP1;ratioP1;P1;durP2;ratioP2;P2;SDS_P1;SDS_P2;PMS_P1;PMS_P2;Temp;Humidity;BMP_temperature;BMP_pressure;BME280_temperature;BME280_humidity;BME280_pressure;Samples;Min_cycle;Max_cycle;Signal;HPM_P1;HPM_P2
2021/09/03 00:02:26;;;;;;;5.50;1.72;;;;;;;11.64;76.96;101233.91;1661258;85;21137;-55
2021/09/03 00:04:53;;;;;;;4.40;2.15;;;;;;;11.61;77.01;101231.33;1670588;85;21072;-55
2021/09/03 00:07:20;;;;;;;7.42;1.90;;;;;;;11.60;77.14;101232.22;1661140;85;21147;-55
2021/09/03 00:09:48;;;;;;;5.30;1.80;;;;;;;11.60;77.15;101233.57;1649835;85;21656;-55
2021/09/03 00:12:17;;;;;;;5.60;1.70;;;;;;;11.60;77.21;101237.59;1672641;85;21107;-55
2021/09/03 00:14:44;;;;;;;10.13;2.08;;;;;;;11.61;77.05;101232.19;1661918;85;21143;-56
2021/09/03 00:17:11;;;;;;;8.68;2.17;;;;;;;11.61;77.03;101238.05;1661458;85;21112;-55
2021/09/03 00:19:38;;;;;;;6.50;2.25;;;;;;;11.61;77.08;101243.41;1656465;84;21805;-55
2021/09/03 00:22:05;;;;;;;6.10;2.02;;;;;;;11.60;77.14;101240.28;1670810;85;21056;-55
2021/09/03 00:24:32;;;;;;;3.98;1.80;;;;;;;11.58;77.17;101243.03;1658771;85;21049;-55
2021/09/03 00:26:59;;;;;;;3.70;1.80;;;;;;;11.57;77.29;101237.70;1661915;85;21452;-55
2021/09/03 00:29:26;;;;;;;6.80;2.25;;;;;;;11.56;77.31;101237.28;1671446;85;21500;-55
2021/09/03 00:31:53;;;;;;;6.72;1.72;;;;;;;11.54;77.42;101241.83;1662017;85;21805;-54
2021/09/03 00:34:19;;;;;;;8.18;2.47;;;;;;;11.53;77.52;101238.73;1659874;85;21085;-54
2021/09/03 00:36:47;;;;;;;7.55;2.20;;;;;;;11.51;77.39;101243.27;1675213;85;21628;-55
2021/09/03 00:39:14;;;;;;;6.62;1.77;;;;;;;11.46;77.39;101238.93;1656978;85;21048;-54
2021/09/03 00:41:41;;;;;;;14.58;2.55;;;;;;;11.42;77.45;101241.75;1676505;85;21155;-54
2021/09/03 00:44:07;;;;;;;4.92;1.70;;;;;;;11.38;77.53;101246.31;1664543;85;21537;-53
2021/09/03 00:46:34;;;;;;;6.40;1.62;;;;;;;11.35;77.46;101242.39;1664886;85;21035;-53
2021/09/03 00:49:01;;;;;;;6.12;1.65;;;;;;;11.32;77.47;101243.83;1667600;85;21426;-53
2021/09/03 00:51:28;;;;;;;5.25;1.85;;;;;;;11.26;77.49;101246.70;1668076;85;21049;-53
2021/09/03 00:53:55;;;;;;;5.60;1.80;;;;;;;11.18;77.71;101246.93;1673773;85;21059;-54
2021/09/03 00:56:22;;;;;;;4.30;1.60;;;;;;;11.12;77.90;101249.80;1665558;85;21095;-54
2021/09/03 00:58:49;;;;;;;5.92;1.62;;;;;;;11.07;78.11;101245.91;1674840;85;21033;-54
2021/09/03 01:01:19;;;;;;;2.52;1.37;;;;;;;11.03;78.31;101245.58;1661460;85;21075;-54
2021/09/03 01:03:46;;;;;;;9.03;1.98;;;;;;;10.99;78.48;101247.94;1666297;85;21085;-54
2021/09/03 01:06:13;;;;;;;5.42;1.80;;;;;;;10.93;78.57;101250.78;1669959;85;21071;-55
2021/09/03 01:08:39;;;;;;;7.83;2.08;;;;;;;10.87;78.89;101251.86;1671213;85;21651;-55
2021/09/03 01:11:08;;;;;;;5.45;2.00;;;;;;;10.81;78.97;101252.91;1664987;85;21051;-54
2021/09/03 01:13:36;;;;;;;7.67;2.37;;;;;;;10.78;79.26;101254.78;1664545;85;20944;-53
2021/09/03 01:16:04;;;;;;;6.17;2.08;;;;;;;10.75;79.41;101254.42;1631765;85;21132;-54
2021/09/03 01:18:31;;;;;;;3.25;1.70;;;;;;;10.72;79.56;101259.84;1626672;86;21466;-54
2021/09/03 01:20:59;;;;;;;6.08;2.30;;;;;;;10.69;79.81;101259.93;1619881;86;22351;-55
2021/09/03 01:23:26;;;;;;;8.58;2.12;;;;;;;10.66;79.97;101270.74;1689211;83;21044;-54
2021/09/03 01:25:54;;;;;;;5.15;2.10;;;;;;;10.66;80.07;101266.72;1697899;83;21070;-55
2021/09/03 01:28:21;;;;;;;5.28;2.20;;;;;;;10.65;80.18;101263.63;1687354;84;21115;-55
2021/09/03 01:30:48;;;;;;;5.20;1.75;;;;;;;10.63;80.10;101260.11;1686519;85;21120;-55
2021/09/03 01:33:15;;;;;;;7.17;2.27;;;;;;;10.58;80.19;101263.80;1689752;83;21502;-55
2021/09/03 01:35:43;;;;;;;7.22;2.35;;;;;;;10.57;80.31;101263.38;1681317;84;20988;-55
2021/09/03 01:38:10;;;;;;;5.92;2.17;;;;;;;10.57;80.39;101263.82;1673981;85;21103;-55
2021/09/03 01:40:37;;;;;;;6.15;2.70;;;;;;;10.56;80.37;101256.70;1672811;84;21656;-54
2021/09/03 01:43:04;;;;;;;6.80;2.70;;;;;;;10.52;80.36;101267.09;1667056;85;21061;-55
2021/09/03 01:45:31;;;;;;;8.18;2.87;;;;;;;10.47;80.51;101256.48;1663997;85;21159;-54
2021/09/03 01:47:58;;;;;;;10.55;3.00;;;;;;;10.46;80.64;101265.45;1671050;85;21726;-54
2021/09/03 01:50:25;;;;;;;10.70;3.72;;;;;;;10.44;80.68;101257.91;1665934;84;21108;-55
2021/09/03 01:52:52;;;;;;;11.28;3.25;;;;;;;10.40;80.79;101264.25;1670929;84;21092;-55
2021/09/03 01:55:19;;;;;;;9.00;3.65;;;;;;;10.37;80.85;101258.97;1663941;85;21069;-54
2021/09/03 01:57:46;;;;;;;9.43;3.10;;;;;;;10.30;80.99;101253.78;1669518;84;21133;-55
2021/09/03 02:00:15;;;;;;;9.58;3.77;;;;;;;10.26;81.26;101258.77;1665591;85;21095;-55
2021/09/03 02:02:42;;;;;;;7.62;3.50;;;;;;;10.25;81.36;101257.01;1665947;84;21035;-54
2021/09/03 02:05:10;;;;;;;10.13;3.40;;;;;;;10.23;81.45;101252.16;1666490;85;21056;-54
2021/09/03 02:07:37;;;;;;;16.42;4.10;;;;;;;10.20;81.44;101250.89;1671536;85;21569;-55
2021/09/03 02:10:06;;;;;;;8.88;3.17;;;;;;;10.13;81.69;101251.50;1666231;85;21913;-56
2021/09/03 02:12:33;;;;;;;12.10;3.72;;;;;;;10.12;81.90;101240.84;1667232;85;21574;-54
2021/09/03 02:15:01;;;;;;;12.23;3.45;;;;;;;10.13;82.02;101254.66;1666833;85;21025;-55
2021/09/03 02:17:29;;;;;;;14.18;3.60;;;;;;;10.15;82.02;101257.70;1658568;84;21159;-55
2021/09/03 02:19:56;;;;;;;8.58;3.25;;;;;;;10.14;82.10;101252.40;1667848;85;21461;-55
2021/09/03 02:22:24;;;;;;;7.83;3.42;;;;;;;10.12;82.08;101250.22;1663594;85;21088;-55
2021/09/03 02:24:51;;;;;;;11.65;3.40;;;;;;;10.11;82.29;101257.36;1672334;84;21552;-54
2021/09/03 02:27:17;;;;;;;7.60;3.05;;;;;;;10.09;82.21;101258.34;1667825;85;21067;-56
2021/09/03 02:29:44;;;;;;;9.78;3.25;;;;;;;10.03;82.18;101255.34;1672705;85;21514;-56
2021/09/03 02:32:13;;;;;;;8.55;3.33;;;;;;;10.00;82.44;101265.66;1663326;85;21152;-55
2021/09/03 02:34:41;;;;;;;9.58;3.22;;;;;;;9.98;82.52;101263.48;1675897;85;20988;-55
2021/09/03 02:37:08;;;;;;;8.13;3.22;;;;;;;10.01;82.59;101269.23;1656823;85;21585;-54
2021/09/03 02:39:35;;;;;;;11.68;3.20;;;;;;;10.00;82.59;101260.78;1646716;85;21056;-55
2021/09/03 02:42:02;;;;;;;7.62;2.98;;;;;;;9.98;82.53;101262.14;1650439;85;21049;-55
2021/09/03 02:44:29;;;;;;;6.87;2.80;;;;;;;9.92;82.61;101273.02;1651948;85;21553;-56
2021/09/03 02:46:56;;;;;;;10.20;3.20;;;;;;;9.86;82.85;101263.32;1651169;85;21160;-55
2021/09/03 02:49:24;;;;;;;8.78;3.00;;;;;;;9.85;83.07;101267.39;1662816;85;21099;-54
2021/09/03 02:51:51;;;;;;;7.67;2.80;;;;;;;9.82;83.20;101266.10;1643348;85;22059;-54
2021/09/03 02:54:18;;;;;;;10.43;3.33;;;;;;;9.77;83.41;101266.67;1634274;85;21045;-55
2021/09/03 02:56:46;;;;;;;12.60;3.17;;;;;;;9.73;83.74;101272.11;1667422;85;20996;-54
2021/09/03 02:59:13;;;;;;;7.60;3.00;;;;;;;9.73;83.90;101280.14;1661748;85;21150;-55
2021/09/03 03:01:40;;;;;;;7.40;3.10;;;;;;;9.75;84.03;101277.44;1645380;85;21044;-53
2021/09/03 03:04:07;;;;;;;6.25;2.90;;;;;;;9.79;84.01;101275.11;1631468;85;21387;-53
2021/09/03 03:06:34;;;;;;;10.48;2.65;;;;;;;9.82;83.90;101276.81;1651185;85;21036;-53
2021/09/03 03:09:01;;;;;;;7.00;3.08;;;;;;;9.78;83.87;101277.36;1643136;85;21080;-54
2021/09/03 03:11:29;;;;;;;9.10;3.05;;;;;;;9.79;83.97;101283.58;1662676;85;21423;-53
2021/09/03 03:14:03;;;;;;;11.10;2.83;;;;;;;9.77;84.00;101282.74;1639915;85;21059;-54
2021/09/03 03:16:25;;;;;;;12.15;2.80;;;;;;;9.73;84.02;101281.48;1664536;85;21080;-54
2021/09/03 03:18:52;;;;;;;10.03;3.08;;;;;;;9.69;84.24;101287.83;1653771;85;21060;-54
2021/09/03 03:21:20;;;;;;;8.98;2.95;;;;;;;9.69;84.57;101281.13;1668344;85;21024;-54
2021/09/03 03:23:48;;;;;;;8.03;3.25;;;;;;;9.70;84.64;101290.03;1643599;85;21218;-54
2021/09/03 03:26:14;;;;;;;10.55;3.15;;;;;;;9.67;84.73;101286.98;1664817;85;21450;-54
2021/09/03 03:28:42;;;;;;;10.05;3.10;;;;;;;9.64;84.94;101280.36;1646888;84;21103;-54
2021/09/03 03:31:08;;;;;;;11.97;3.27;;;;;;;9.67;85.11;101280.28;1638355;85;21108;-55
2021/09/03 03:33:35;;;;;;;7.87;2.87;;;;;;;9.70;85.07;101273.52;1634828;85;21523;-55
2021/09/03 03:36:04;;;;;;;8.28;2.98;;;;;;;9.72;84.99;101278.38;1665997;85;21270;-55
2021/09/03 03:38:32;;;;;;;10.15;3.52;;;;;;;9.75;84.98;101274.29;1666603;84;21193;-53
2021/09/03 03:40:59;;;;;;;14.18;3.05;;;;;;;9.82;84.98;101270.11;1672256;85;21120;-53
2021/09/03 03:43:26;;;;;;;9.80;3.00;;;;;;;9.88;84.74;101273.54;1662227;85;21079;-55
2021/09/03 03:45:55;;;;;;;7.75;2.90;;;;;;;9.93;84.51;101267.19;1672079;85;21024;-55
2021/09/03 03:48:23;;;;;;;9.98;3.15;;;;;;;10.00;84.51;101264.33;1674042;85;21560;-55
2021/09/03 03:50:50;;;;;;;14.10;3.80;;;;;;;10.11;84.22;101269.42;1668506;85;21533;-54
2021/09/03 03:53:16;;;;;;;10.08;3.52;;;;;;;10.20;83.82;101275.02;1666371;85;20965;-55
2021/09/03 03:55:44;;;;;;;6.55;2.83;;;;;;;10.25;83.41;101274.91;1662273;85;21048;-54
2021/09/03 03:58:11;;;;;;;9.05;3.12;;;;;;;10.32;83.00;101274.72;1666320;85;21056;-56
2021/09/03 04:00:38;;;;;;;14.15;3.52;;;;;;;10.41;82.74;101274.98;1665425;85;21526;-55
2021/09/03 04:03:05;;;;;;;9.68;3.05;;;;;;;10.51;82.22;101283.66;1656048;85;21024;-53
2021/09/03 04:05:32;;;;;;;11.03;2.85;;;;;;;10.55;81.57;101285.33;1655805;85;21561;-54
2021/09/03 04:07:59;;;;;;;12.43;2.72;;;;;;;10.57;81.41;101280.80;1673061;85;21029;-53
2021/09/03 04:10:26;;;;;;;10.45;3.05;;;;;;;10.64;81.07;101290.02;1666070;85;21143;-54
2021/09/03 04:12:53;;;;;;;13.08;2.90;;;;;;;10.69;80.79;101288.09;1662343;85;21878;-53
2021/09/03 04:15:20;;;;;;;15.20;2.45;;;;;;;10.74;80.52;101293.75;1658891;85;21097;-53
2021/09/03 04:17:48;;;;;;;9.63;3.02;;;;;;;10.84;80.17;101294.39;1661925;85;21008;-55
2021/09/03 04:20:15;;;;;;;6.83;2.77;;;;;;;10.94;79.92;101300.83;1672082;84;21534;-55
2021/09/03 04:22:42;;;;;;;8.83;2.92;;;;;;;11.07;79.36;101302.26;1666154;85;21088;-52
2021/09/03 04:25:11;;;;;;;6.42;3.12;;;;;;;11.15;78.59;101301.56;1670376;85;21143;-53
2021/09/03 04:27:39;;;;;;;7.92;2.70;;;;;;;11.21;78.09;101306.36;1669064;84;21065;-53
2021/09/03 04:30:07;;;;;;;6.83;3.05;;;;;;;11.27;77.84;101311.09;1661974;85;21466;-53
2021/09/03 04:32:34;;;;;;;8.15;2.92;;;;;;;11.37;77.52;101311.68;1651058;85;21174;-54
2021/09/03 04:35:01;;;;;;;8.43;3.17;;;;;;;11.46;77.10;101319.48;1669485;85;21151;-54
2021/09/03 04:37:27;;;;;;;15.85;4.53;;;;;;;11.53;76.83;101324.66;1683098;84;21240;-54
2021/09/03 04:39:56;;;;;;;12.75;3.62;;;;;;;11.62;77.04;101329.78;1681893;84;20973;-54
2021/09/03 04:42:23;;;;;;;10.25;3.50;;;;;;;11.82;76.69;101332.29;1679385;85;21080;-53
2021/09/03 04:44:50;;;;;;;8.68;3.20;;;;;;;12.00;75.89;101338.44;1685969;84;21037;-53
2021/09/03 04:47:17;;;;;;;9.28;3.10;;;;;;;12.17;75.19;101339.75;1694078;84;21544;-53
2021/09/03 04:49:44;;;;;;;6.85;2.90;;;;;;;12.27;74.76;101331.81;1690042;84;21958;-54
2021/09/03 04:52:11;;;;;;;14.78;3.10;;;;;;;12.46;74.19;101339.24;1688443;84;21529;-53
2021/09/03 04:54:39;;;;;;;11.97;2.83;;;;;;;12.63;73.54;101338.69;1692008;84;21115;-54
2021/09/03 04:57:06;;;;;;;14.78;4.28;;;;;;;12.79;72.66;101335.00;1688875;84;21135;-54
2021/09/03 04:59:34;;;;;;;10.20;3.40;;;;;;;12.93;72.03;101331.81;1689926;84;21075;-54
2021/09/03 05:02:02;;;;;;;11.15;3.83;;;;;;;13.03;71.12;101332.36;1692352;84;21124;-53
2021/09/03 05:04:29;;;;;;;12.85;3.25;;;;;;;13.12;70.01;101339.23;1694359;83;21036;-53
2021/09/03 05:06:57;;;;;;;10.30;3.37;;;;;;;13.16;70.04;101343.12;1668536;84;21131;-54
2021/09/03 05:09:26;;;;;;;12.85;3.37;;;;;;;13.31;69.79;101347.50;1685353;84;21045;-54
2021/09/03 05:11:53;;;;;;;13.58;3.17;;;;;;;13.50;69.37;101347.75;1688341;84;21028;-54
2021/09/03 05:14:19;;;;;;;8.98;3.05;;;;;;;13.68;68.80;101346.16;1690684;84;21142;-54
2021/09/03 05:16:48;;;;;;;8.85;2.98;;;;;;;13.84;67.95;101353.66;1690880;84;21117;-54
2021/09/03 05:19:16;;;;;;;11.03;3.27;;;;;;;13.99;67.10;101354.86;1690710;84;21465;-54
2021/09/03 05:21:45;;;;;;;6.90;2.72;;;;;;;14.11;66.55;101353.49;1687944;84;21020;-54
2021/09/03 05:24:12;;;;;;;11.65;3.33;;;;;;;14.25;65.77;101352.44;1686705;84;21027;-54
2021/09/03 05:26:39;;;;;;;12.35;3.20;;;;;;;14.40;65.62;101356.80;1690534;84;21143;-55
2021/09/03 05:29:06;;;;;;;13.03;3.30;;;;;;;14.60;65.18;101356.85;1690642;84;21470;-56
2021/09/03 05:31:33;;;;;;;9.68;3.47;;;;;;;14.80;63.77;101359.20;1695226;84;21130;-53
2021/09/03 05:34:00;;;;;;;7.85;3.47;;;;;;;14.91;63.25;101357.39;1689412;84;21107;-53
2021/09/03 05:36:28;;;;;;;9.68;3.08;;;;;;;15.06;62.96;101366.64;1685971;84;21111;-54
2021/09/03 05:38:56;;;;;;;9.83;2.92;;;;;;;15.27;62.27;101372.92;1670491;84;21185;-53
2021/09/03 05:41:23;;;;;;;11.28;3.40;;;;;;;15.47;61.67;101369.30;1677115;84;21048;-54
2021/09/03 05:43:50;;;;;;;13.08;3.37;;;;;;;15.72;61.12;101372.22;1677048;84;21091;-54
2021/09/03 05:46:17;;;;;;;7.90;2.77;;;;;;;15.90;59.40;101383.16;1673569;84;21438;-53
2021/09/03 05:48:45;;;;;;;7.55;2.62;;;;;;;15.95;58.83;101372.98;1678829;84;21112;-54
2021/09/03 05:51:12;;;;;;;7.22;2.83;;;;;;;16.03;58.67;101381.63;1683495;84;21139;-53
2021/09/03 05:53:39;;;;;;;8.38;3.08;;;;;;;16.16;58.03;101379.66;1678911;83;22146;-54
2021/09/03 05:56:07;;;;;;;11.05;2.52;;;;;;;16.25;57.63;101375.17;1676350;83;21086;-53
2021/09/03 05:58:37;;;;;;;7.97;2.45;;;;;;;16.35;56.99;101375.57;1670195;84;21388;-54
2021/09/03 06:01:04;;;;;;;8.93;2.80;;;;;;;16.55;56.74;101392.19;1670251;83;21600;-54
2021/09/03 06:03:31;;;;;;;6.15;2.67;;;;;;;17.02;56.09;101385.34;1684243;83;22393;-54
2021/09/03 06:06:00;;;;;;;15.55;2.92;;;;;;;17.64;53.93;101389.30;1651645;85;21101;-53
2021/09/03 06:08:27;;;;;;;8.05;2.55;;;;;;;18.24;52.96;101395.97;1647903;85;21204;-54
2021/09/03 06:10:54;;;;;;;19.40;3.40;;;;;;;18.69;51.65;101392.50;1659829;85;21104;-55
2021/09/03 06:13:21;;;;;;;9.98;2.87;;;;;;;19.15;50.50;101384.33;1653888;85;21486;-55
2021/09/03 06:15:48;;;;;;;10.40;3.12;;;;;;;19.66;48.92;101376.20;1657672;84;21181;-54
2021/09/03 06:18:15;;;;;;;5.60;2.40;;;;;;;19.91;47.82;101378.73;1647449;85;21082;-54
2021/09/03 06:20:43;;;;;;;13.30;4.42;;;;;;;19.85;46.76;101381.83;1628190;86;21095;-54
2021/09/03 06:23:10;;;;;;;10.95;3.20;;;;;;;19.64;47.12;101389.49;1617734;86;21584;-55
2021/09/03 06:25:38;;;;;;;10.28;2.95;;;;;;;19.45;47.41;101386.09;1668911;84;21111;-54
2021/09/03 06:28:23;;;;;;;8.75;2.80;;;;;;;19.31;47.62;101387.44;1672832;84;21130;-54
2021/09/03 06:30:50;;;;;;;8.10;2.80;;;;;;;19.12;48.27;101391.78;1670802;84;21971;-54
2021/09/03 06:33:17;;;;;;;9.88;2.70;;;;;;;18.99;48.60;101383.50;1663952;84;21103;-53
2021/09/03 06:35:44;;;;;;;12.90;2.85;;;;;;;18.93;49.07;101381.14;1669163;84;21645;-61
2021/09/03 06:38:11;;;;;;;9.93;3.10;;;;;;;18.93;48.90;101381.99;1636198;84;21096;-61
2021/09/03 06:40:38;;;;;;;6.85;2.40;;;;;;;18.90;48.76;101383.07;1628540;86;21157;-61
2021/09/03 06:43:05;;;;;;;7.62;2.20;;;;;;;18.86;47.74;101384.20;1673181;84;21045;-62
2021/09/03 06:45:33;;;;;;;5.50;2.52;;;;;;;18.65;47.92;101385.48;1681041;84;21499;-62
2021/09/03 06:48:00;;;;;;;7.62;2.40;;;;;;;18.42;48.58;101390.42;1677760;84;21068;-62
2021/09/03 06:50:27;;;;;;;5.50;2.20;;;;;;;18.43;49.02;101394.88;1653815;85;21099;-61
2021/09/03 06:52:54;;;;;;;6.95;2.52;;;;;;;18.52;48.78;101394.36;1663103;84;21120;-61
2021/09/03 06:55:21;;;;;;;7.75;2.40;;;;;;;18.64;48.60;101408.17;1663382;84;21104;-62
2021/09/03 06:57:48;;;;;;;8.80;2.08;;;;;;;18.71;47.97;101417.23;1668435;84;20980;-61
2021/09/03 07:00:15;;;;;;;7.10;2.33;;;;;;;18.70;47.62;101405.97;1677584;84;21466;-60
2021/09/03 07:02:42;;;;;;;10.60;2.58;;;;;;;18.67;47.67;101404.80;1669681;85;21438;-62
2021/09/03 07:05:11;;;;;;;5.20;1.80;;;;;;;18.72;48.06;101400.47;1671024;84;21090;-60
2021/09/03 07:07:40;;;;;;;4.10;2.15;;;;;;;18.68;47.15;101407.91;1637189;85;20941;-61
2021/09/03 07:10:08;;;;;;;3.65;1.90;;;;;;;18.55;47.37;101404.16;1609640;86;21731;-61
2021/09/03 07:12:35;;;;;;;5.55;2.10;;;;;;;18.48;47.86;101410.45;1636750;86;21537;-61
2021/09/03 07:15:05;;;;;;;3.67;1.82;;;;;;;18.40;47.30;101405.92;1624695;86;21113;-61
2021/09/03 07:17:32;;;;;;;7.33;2.72;;;;;;;18.36;47.05;101412.50;1626350;86;21616;-61
2021/09/03 07:20:00;;;;;;;6.45;2.27;;;;;;;18.35;47.49;101413.47;1627404;86;21608;-61
2021/09/03 07:22:27;;;;;;;3.98;1.70;;;;;;;18.40;47.58;101412.71;1671341;83;21084;-61
2021/09/03 07:24:54;;;;;;;8.98;2.20;;;;;;;18.48;46.33;101415.88;1666114;85;21052;-62
2021/09/03 07:27:23;;;;;;;5.83;1.80;;;;;;;18.46;46.55;101418.67;1668132;85;21068;-63
2021/09/03 07:29:51;;;;;;;5.37;2.00;;;;;;;18.48;46.43;101415.88;1669534;84;21542;-61
2021/09/03 07:32:20;;;;;;;6.62;2.20;;;;;;;18.51;46.25;101410.27;1659490;84;21056;-56
2021/09/03 07:34:52;;;;;;;4.08;1.55;;;;;;;18.58;46.19;101414.86;1667394;84;21107;-57
2021/09/03 07:37:19;;;;;;;5.40;1.45;;;;;;;18.67;45.43;101409.34;1664269;84;21162;-63
2021/09/03 07:39:48;;;;;;;5.42;1.77;;;;;;;18.74;45.15;101410.75;1670060;84;21088;-55
2021/09/03 07:42:15;;;;;;;10.72;2.20;;;;;;;18.84;45.38;101409.73;1676147;83;21505;-57
2021/09/03 07:44:43;;;;;;;4.45;1.65;;;;;;;18.89;44.80;101403.03;1666073;83;21111;-57
2021/09/03 07:47:12;;;;;;;5.35;1.80;;;;;;;18.87;44.15;101406.82;1670495;83;21111;-57
2021/09/03 07:49:39;;;;;;;3.27;1.50;;;;;;;18.88;44.81;101391.77;1668644;84;21551;-57
2021/09/03 07:52:06;;;;;;;4.30;1.70;;;;;;;18.99;43.69;101403.38;1668283;83;21231;-57
2021/09/03 07:54:34;;;;;;;5.08;1.98;;;;;;;18.92;43.76;101398.41;1664001;84;21142;-57
2021/09/03 07:57:02;;;;;;;8.63;1.98;;;;;;;18.64;44.31;101405.45;1665803;84;21481;-56
2021/09/03 07:59:29;;;;;;;10.63;1.90;;;;;;;18.56;44.05;101406.80;1638501;86;21108;-57
2021/09/03 08:01:57;;;;;;;10.95;1.87;;;;;;;18.60;44.32;101405.64;1675534;84;21072;-56
2021/09/03 08:04:24;;;;;;;8.25;1.70;;;;;;;18.66;44.24;101398.09;1679663;84;21091;-57
2021/09/03 08:06:52;;;;;;;7.80;1.70;;;;;;;18.63;43.86;101406.42;1667683;84;21092;-57
2021/09/03 08:09:19;;;;;;;11.35;1.90;;;;;;;18.54;43.28;101407.36;1674123;84;21473;-56
2021/09/03 08:11:48;;;;;;;6.80;1.80;;;;;;;18.48;43.77;101402.30;1664140;85;21082;-57
2021/09/03 08:14:16;;;;;;;8.13;1.55;;;;;;;18.52;44.51;101397.55;1663174;84;21220;-58
2021/09/03 08:16:43;;;;;;;3.95;1.67;;;;;;;18.70;43.86;101396.97;1671857;84;21532;-57
2021/09/03 08:19:09;;;;;;;4.90;1.50;;;;;;;18.79;43.13;101384.19;1669135;84;20965;-57
2021/09/03 08:21:36;;;;;;;6.58;1.47;;;;;;;18.87;41.99;101390.02;1670922;84;21078;-57
2021/09/03 08:24:05;;;;;;;2.85;1.40;;;;;;;18.98;42.04;101381.72;1673287;83;21112;-58
2021/09/03 08:26:34;;;;;;;5.35;1.72;;;;;;;19.08;41.57;101378.00;1667721;84;21119;-56
2021/09/03 08:29:01;;;;;;;4.50;1.40;;;;;;;19.20;41.91;101379.08;1670695;84;21053;-57
2021/09/03 08:31:29;;;;;;;4.12;1.35;;;;;;;19.30;41.67;101365.30;1671051;84;21436;-56
2021/09/03 08:33:56;;;;;;;4.90;1.47;;;;;;;19.43;40.96;101371.73;1663509;85;21665;-57
2021/09/03 08:36:24;;;;;;;6.83;1.60;;;;;;;19.35;41.24;101374.53;1669985;84;21060;-57
2021/09/03 08:38:52;;;;;;;6.83;1.50;;;;;;;19.30;41.32;101368.91;1678876;83;21126;-58
2021/09/03 08:41:20;;;;;;;5.50;1.30;;;;;;;19.31;41.17;101368.41;1685089;83;21105;-57
2021/09/03 08:43:47;;;;;;;5.97;1.45;;;;;;;19.16;40.37;101367.05;1690803;82;21977;-57
2021/09/03 08:46:14;;;;;;;9.25;1.57;;;;;;;19.07;40.84;101361.30;1693876;83;20976;-56
2021/09/03 08:48:41;;;;;;;9.00;1.85;;;;;;;19.14;41.29;101354.51;1694401;82;21107;-57
2021/09/03 08:51:08;;;;;;;4.35;1.62;;;;;;;19.31;40.90;101353.45;1694525;82;21532;-57
2021/09/03 08:53:35;;;;;;;9.83;1.92;;;;;;;19.41;40.61;101351.03;1689912;83;21055;-57
2021/09/03 08:56:05;;;;;;;6.72;1.30;;;;;;;19.51;40.83;101357.66;1691472;81;21743;-56
2021/09/03 08:58:33;;;;;;;5.78;1.40;;;;;;;19.70;39.75;101357.34;1693131;82;21156;-57
2021/09/03 09:01:11;;;;;;;2.22;1.10;;;;;;;19.65;39.34;101358.13;1694337;82;21010;-56
2021/09/03 09:03:40;;;;;;;5.58;1.32;;;;;;;19.57;38.56;101353.68;1689797;83;21772;-56
2021/09/03 09:06:08;;;;;;;5.97;1.30;;;;;;;19.55;39.12;101346.08;1688044;83;21147;-56
2021/09/03 09:08:35;;;;;;;6.15;1.65;;;;;;;19.60;38.84;101354.84;1673147;82;21127;-56
2021/09/03 09:11:18;;;;;;;6.72;1.65;;;;;;;19.58;38.62;101342.69;1688932;83;21189;-56
2021/09/03 09:13:45;;;;;;;2.83;1.32;;;;;;;19.56;39.16;101338.30;1690585;82;21472;-56
2021/09/03 09:16:18;;;;;;;5.45;2.30;;;;;;;19.63;39.22;101346.95;1690207;83;21067;-56
2021/09/03 09:18:53;;;;;;;6.20;2.50;;;;;;;19.62;38.45;101344.73;1695347;83;20933;-55
2021/09/03 09:21:30;;;;;;;6.42;1.72;;;;;;;19.57;37.70;101356.40;1683981;83;21475;-56
2021/09/03 09:24:09;;;;;;;5.28;1.52;;;;;;;19.55;37.62;101350.16;1691528;82;21873;-56
2021/09/03 09:26:49;;;;;;;8.58;5.17;;;;;;;19.57;37.70;101346.88;1691896;82;20973;-56
2021/09/03 09:29:31;;;;;;;6.55;2.70;;;;;;;19.54;37.36;101340.25;1689431;84;20920;-56
2021/09/03 09:32:07;;;;;;;2.62;1.40;;;;;;;19.52;37.84;101339.48;1696920;82;20928;-56
2021/09/03 09:34:36;;;;;;;8.78;1.82;;;;;;;19.65;38.02;101335.48;1693138;82;21071;-56
2021/09/03 09:37:07;;;;;;;4.33;1.25;;;;;;;19.76;37.88;101335.17;1692801;83;20953;-57
2021/09/03 09:39:52;;;;;;;7.53;1.57;;;;;;;20.00;37.82;101324.19;1691124;83;21650;-56
2021/09/03 09:42:28;;;;;;;4.03;1.70;;;;;;;20.27;37.16;101331.02;1690342;83;21410;-56
2021/09/03 09:45:08;;;;;;;2.20;1.30;;;;;;;20.45;36.74;101338.93;1694938;82;21124;-58
2021/09/03 09:47:37;;;;;;;4.17;1.65;;;;;;;20.39;36.03;101332.52;1684999;83;21757;-57
2021/09/03 09:50:26;;;;;;;3.05;1.12;;;;;;;20.08;36.59;101330.50;1687962;82;21007;-56
2021/09/03 09:52:56;;;;;;;2.95;1.65;;;;;;;19.82;36.86;101323.03;1690149;82;21157;-58
2021/09/03 09:55:25;;;;;;;8.63;2.12;;;;;;;19.66;37.15;101314.11;1669223;84;21617;-56
2021/09/03 09:57:52;;;;;;;5.80;1.70;;;;;;;19.67;37.42;101314.49;1693749;82;21539;-55
2021/09/03 10:00:19;;;;;;;5.00;1.30;;;;;;;19.81;37.58;101308.19;1689006;82;21099;-56
2021/09/03 10:02:46;;;;;;;3.90;1.40;;;;;;;19.99;36.65;101316.50;1697332;82;21058;-57
2021/09/03 10:05:12;;;;;;;3.75;1.42;;;;;;;20.07;36.89;101309.70;1691585;83;21707;-56
2021/09/03 10:07:39;;;;;;;2.50;1.10;;;;;;;20.08;36.53;101302.77;1692566;83;21103;-56
2021/09/03 10:10:07;;;;;;;2.35;1.30;;;;;;;20.10;35.46;101316.30;1687328;83;21119;-56
2021/09/03 10:12:35;;;;;;;3.25;1.32;;;;;;;20.00;35.79;101300.55;1684857;82;21095;-57
2021/09/03 10:15:03;;;;;;;4.65;1.40;;;;;;;20.00;36.29;101296.47;1672251;82;21541;-56
2021/09/03 10:17:32;;;;;;;4.60;1.15;;;;;;;20.12;36.58;101296.64;1688289;82;21461;-55
2021/09/03 10:19:59;;;;;;;2.80;1.12;;;;;;;20.22;34.78;101314.09;1693152;82;20971;-56
2021/09/03 10:22:27;;;;;;;5.95;1.25;;;;;;;20.09;34.90;101310.47;1670043;84;21050;-56
2021/09/03 10:25:07;;;;;;;5.22;1.30;;;;;;;19.96;35.80;101302.25;1597682;85;21473;-56
2021/09/03 10:27:35;;;;;;;4.15;1.22;;;;;;;19.95;36.25;101301.36;1664302;84;21489;-56
2021/09/03 10:30:17;;;;;;;3.37;1.00;;;;;;;20.06;35.85;101297.92;1663391;84;20914;-56
2021/09/03 10:32:44;;;;;;;2.72;1.15;;;;;;;20.23;35.89;101293.20;1659685;84;21552;-56
2021/09/03 10:35:20;;;;;;;4.53;1.40;;;;;;;20.46;35.73;101284.34;1676206;82;21086;-56
2021/09/03 10:37:49;;;;;;;3.22;1.50;;;;;;;20.73;35.12;101292.08;1698482;82;21501;-57
2021/09/03 10:40:39;;;;;;;4.87;1.40;;;;;;;20.79;35.05;101292.16;1689258;83;21103;-56
2021/09/03 10:43:05;;;;;;;5.87;1.42;;;;;;;20.69;34.52;101297.37;1692745;82;21154;-56
2021/09/03 10:45:46;;;;;;;3.12;1.00;;;;;;;20.50;35.00;101293.66;1689037;82;21321;-56
2021/09/03 10:48:16;;;;;;;1.32;0.80;;;;;;;20.38;34.43;101288.56;1691539;82;21106;-55
2021/09/03 10:50:55;;;;;;;5.65;1.25;;;;;;;20.30;34.86;101289.97;1692169;82;21111;-59
2021/09/03 10:53:30;;;;;;;3.55;1.50;;;;;;;20.40;35.23;101288.85;1691361;82;21862;-57
2021/09/03 10:56:17;;;;;;;4.25;1.47;;;;;;;20.48;35.08;101289.70;1690391;82;21083;-56
2021/09/03 10:59:05;;;;;;;7.70;1.77;;;;;;;20.52;35.37;101290.34;1687826;83;21088;-56
2021/09/03 11:01:34;;;;;;;3.87;1.15;;;;;;;20.54;35.78;101285.18;1691879;82;21583;-55
2021/09/03 11:04:14;;;;;;;6.72;1.40;;;;;;;20.67;35.68;101281.11;1684475;83;21188;-56
2021/09/03 11:06:57;;;;;;;2.08;1.32;;;;;;;20.79;35.32;101281.25;1690211;83;21446;-55
2021/09/03 11:09:58;;;;;;;4.20;1.30;;;;;;;20.83;34.47;101280.94;1657883;85;21044;-56
2021/09/03 11:12:27;;;;;;;1.20;0.98;;;;;;;20.68;33.80;101276.55;1652512;84;21041;-55
2021/09/03 11:14:55;;;;;;;4.05;1.40;;;;;;;20.52;34.45;101274.88;1646545;85;21076;-56
2021/09/03 11:17:22;;;;;;;3.37;1.40;;;;;;;20.52;34.78;101270.80;1649403;85;21901;-55
2021/09/03 11:19:50;;;;;;;3.25;1.20;;;;;;;20.60;35.08;101270.27;1625317;85;21085;-57
2021/09/03 11:22:22;;;;;;;2.35;1.10;;;;;;;20.68;34.58;101264.30;1633083;86;21580;-56
2021/09/03 11:25:02;;;;;;;3.22;1.05;;;;;;;20.64;34.94;101251.84;1650425;85;21049;-56
2021/09/03 11:27:32;;;;;;;2.95;1.50;;;;;;;20.69;35.12;101245.09;1645595;86;21478;-55
2021/09/03 11:30:13;;;;;;;4.47;1.98;;;;;;;20.81;34.99;101246.12;1642100;86;21152;-56
2021/09/03 11:32:39;;;;;;;3.00;1.10;;;;;;;20.84;34.56;101260.88;1619098;85;21542;-56